createdAt,value
2022-11-20T00:01:55.914Z,72.74
2022-11-20T00:04:26.157Z,72.43
2022-11-20T00:06:56.418Z,72.98
2022-11-20T00:09:26.795Z,72.69
2022-11-20T00:11:57.044Z,72.68
2022-11-20T00:14:30.304Z,72.67
2022-11-20T00:17:00.441Z,71.85
2022-11-20T00:19:31.077Z,71.79
2022-11-20T00:22:01.247Z,71.97
2022-11-20T00:24:35.134Z,71.61
2022-11-20T00:27:07.043Z,71.32
2022-11-20T00:29:39.781Z,71.65
2022-11-20T00:32:10.009Z,71.62
2022-11-20T00:34:42.563Z,71.49
2022-11-20T00:37:12.716Z,71.81
2022-11-20T00:39:42.903Z,72.00
2022-11-20T00:42:13.064Z,71.58
2022-11-20T00:44:45.938Z,71.21
2022-11-20T00:47:16.298Z,71.53
2022-11-20T00:49:46.894Z,71.40
2022-11-20T00:52:17.037Z,71.03
2022-11-20T00:54:47.178Z,71.01
2022-11-20T00:57:17.640Z,71.14
2022-11-20T00:59:50.385Z,71.28
2022-11-20T01:02:20.690Z,71.04
2022-11-20T01:04:50.911Z,70.50
2022-11-20T01:07:21.265Z,70.48
2022-11-20T01:09:52.113Z,70.84
2022-11-20T01:12:22.196Z,70.36
2022-11-20T01:14:55.036Z,70.50
2022-11-20T01:17:25.230Z,70.61
2022-11-20T01:19:55.700Z,70.36
2022-11-20T01:22:25.835Z,70.66
2022-11-20T01:24:55.955Z,70.44
2022-11-20T01:27:26.129Z,70.84
2022-11-20T01:30:01.237Z,70.82
2022-11-20T01:32:31.816Z,71.02
2022-11-20T01:35:01.969Z,70.80
2022-11-20T01:37:32.231Z,70.51
2022-11-20T01:40:02.929Z,71.10
2022-11-20T01:42:45.537Z,70.79
2022-11-20T01:45:59.088Z,71.22
2022-11-20T01:48:33.676Z,70.53
2022-11-20T01:51:05.204Z,71.10
2022-11-20T01:53:38.604Z,71.04
2022-11-20T01:56:13.739Z,70.89
2022-11-20T01:58:48.784Z,71.14
2022-11-20T02:01:22.583Z,70.22
2022-11-20T02:03:54.307Z,70.08
2022-11-20T02:06:29.874Z,70.07
2022-11-20T02:09:00.323Z,70.34
2022-11-20T02:11:30.624Z,70.57
2022-11-20T02:13:59.156Z,70.08
2022-11-20T02:16:34.581Z,70.08
2022-11-20T02:19:10.226Z,70.06
2022-11-20T02:21:47.120Z,70.03
2022-11-20T02:24:22.303Z,69.79
2022-11-20T02:26:57.194Z,69.87
2022-11-20T02:29:30.775Z,69.76
2022-11-20T02:32:03.280Z,69.10
2022-11-20T02:34:33.756Z,69.27
2022-11-20T02:37:04.279Z,69.32
2022-11-20T02:39:37.133Z,69.62
2022-11-20T02:42:07.599Z,69.28
2022-11-20T02:44:37.811Z,69.14
2022-11-20T02:47:07.930Z,69.75
2022-11-20T02:49:38.467Z,69.87
2022-11-20T02:52:08.874Z,69.43
2022-11-20T02:54:41.667Z,69.56
2022-11-20T02:57:11.744Z,69.96
2022-11-20T02:59:42.060Z,69.43
2022-11-20T03:02:12.381Z,70.15
2022-11-20T03:04:42.565Z,70.16
2022-11-20T03:07:13.542Z,69.55
2022-11-20T03:09:46.296Z,69.71
2022-11-20T03:12:16.721Z,69.80
2022-11-20T03:14:52.641Z,69.96
2022-11-20T03:17:23.592Z,69.80
2022-11-20T03:19:53.775Z,70.10
2022-11-20T03:22:24.125Z,70.02
2022-11-20T03:24:56.913Z,70.13
2022-11-20T03:27:27.124Z,69.73
2022-11-20T03:29:57.479Z,69.92
2022-11-20T03:32:27.588Z,70.16
2022-11-20T03:34:57.868Z,70.08
2022-11-20T03:37:28.199Z,69.62
2022-11-20T03:40:01.284Z,69.94
2022-11-20T03:42:43.964Z,69.91
2022-11-20T03:45:15.223Z,70.01
2022-11-20T03:47:45.907Z,70.48
2022-11-20T03:50:17.513Z,70.52
2022-11-20T03:52:47.815Z,70.49
2022-11-20T03:55:20.725Z,70.45
2022-11-20T03:57:51.201Z,70.17
2022-11-20T04:00:21.661Z,70.32
2022-11-20T04:02:51.828Z,70.46
2022-11-20T04:05:21.874Z,70.30
2022-11-20T04:07:52.246Z,70.55
2022-11-20T04:10:25.240Z,70.35
2022-11-20T04:12:55.314Z,70.66
2022-11-20T04:15:25.608Z,70.33
2022-11-20T04:17:55.760Z,70.44
2022-11-20T04:20:26.019Z,69.95
2022-11-20T04:22:58.120Z,69.98
2022-11-20T04:25:30.807Z,69.86
2022-11-20T04:28:01.435Z,70.01
2022-11-20T04:30:31.868Z,70.17
2022-11-20T04:33:05.050Z,69.95
2022-11-20T04:35:38.031Z,70.06
2022-11-20T04:38:08.366Z,70.31
2022-11-20T04:40:41.509Z,70.58
2022-11-20T04:43:11.732Z,70.44
2022-11-20T04:45:41.787Z,70.43
2022-11-20T04:48:12.031Z,70.00
2022-11-20T04:50:44.132Z,70.56
2022-11-20T04:53:14.448Z,70.47
2022-11-20T04:55:47.370Z,70.62
2022-11-20T04:58:17.875Z,70.94
2022-11-20T05:00:48.104Z,71.47
2022-11-20T05:03:18.213Z,71.41
2022-11-20T05:05:48.308Z,71.11
2022-11-20T05:08:18.517Z,71.20
2022-11-20T05:10:51.351Z,70.82
2022-11-20T05:13:21.521Z,71.32
2022-11-20T05:15:51.699Z,71.44
2022-11-20T05:18:21.975Z,71.14
2022-11-20T05:20:59.145Z,71.38
2022-11-20T05:23:29.869Z,71.00
2022-11-20T05:26:02.967Z,70.67
2022-11-20T05:28:34.577Z,70.60
2022-11-20T05:31:11.966Z,70.79
2022-11-20T05:33:44.585Z,70.35
2022-11-20T05:36:15.764Z,70.58
2022-11-20T05:38:50.652Z,70.36
2022-11-20T05:41:24.585Z,69.95
2022-11-20T05:43:55.100Z,69.81
2022-11-20T05:46:29.318Z,70.18
2022-11-20T05:49:00.965Z,69.71
2022-11-20T05:51:32.180Z,69.44
2022-11-20T05:54:02.741Z,69.38
2022-11-20T05:56:35.454Z,69.42
2022-11-20T05:59:05.851Z,69.69
2022-11-20T06:01:37.035Z,69.75
2022-11-20T06:04:07.797Z,69.36
2022-11-20T06:06:38.014Z,69.28
2022-11-20T06:09:08.449Z,69.70
2022-11-20T06:11:41.316Z,69.39
2022-11-20T06:14:11.772Z,69.19
2022-11-20T06:16:41.915Z,69.35
2022-11-20T06:19:12.131Z,69.42
2022-11-20T06:21:42.384Z,69.51
2022-11-20T06:24:13.371Z,69.26
2022-11-20T06:26:51.955Z,69.49
2022-11-20T06:29:22.325Z,69.44
2022-11-20T06:31:52.720Z,69.44
2022-11-20T06:34:23.203Z,69.18
2022-11-20T06:36:53.604Z,69.59
2022-11-20T06:39:23.950Z,69.80
2022-11-20T06:41:59.505Z,69.50
2022-11-20T06:44:29.755Z,69.51
2022-11-20T06:46:59.972Z,69.74
2022-11-20T06:49:30.084Z,69.90
2022-11-20T06:52:00.423Z,70.00
2022-11-20T06:54:30.533Z,70.28
2022-11-20T06:57:03.408Z,70.14
2022-11-20T06:59:33.659Z,70.12
2022-11-20T07:02:04.815Z,69.48
2022-11-20T07:04:34.912Z,69.83
2022-11-20T07:07:05.136Z,69.54
2022-11-20T07:09:38.947Z,69.40
2022-11-20T07:12:12.337Z,68.46
2022-11-20T07:14:42.685Z,68.78
2022-11-20T07:17:12.672Z,68.44
2022-11-20T07:19:44.121Z,68.19
2022-11-20T07:22:14.443Z,68.77
2022-11-20T07:24:46.226Z,68.83
2022-11-20T07:27:19.129Z,68.72
2022-11-20T07:29:49.350Z,68.87
2022-11-20T07:32:19.539Z,68.19
2022-11-20T07:34:49.688Z,68.20
2022-11-20T07:37:20.085Z,68.15
2022-11-20T07:39:50.180Z,68.09
2022-11-20T07:42:22.998Z,68.14
2022-11-20T07:44:53.190Z,67.99
2022-11-20T07:47:23.401Z,67.90
2022-11-20T07:49:53.834Z,67.30
2022-11-20T07:52:24.204Z,66.98
2022-11-20T07:54:54.529Z,67.01
2022-11-20T07:57:28.611Z,67.31
2022-11-20T07:59:58.989Z,66.62
2022-11-20T08:02:29.208Z,65.87
2022-11-20T08:04:59.617Z,65.47
2022-11-20T08:07:29.861Z,65.06
2022-11-20T08:10:00.131Z,64.87
2022-11-20T08:12:45.259Z,64.79
2022-11-20T08:15:15.593Z,64.40
2022-11-20T08:18:01.958Z,64.15
2022-11-20T08:20:32.575Z,63.72
2022-11-20T08:23:03.848Z,63.28
2022-11-20T08:25:34.822Z,62.74
2022-11-20T08:28:19.899Z,62.70
2022-11-20T08:30:51.504Z,62.98
2022-11-20T08:33:22.303Z,62.71
2022-11-20T08:35:52.536Z,63.32
2022-11-20T08:38:22.851Z,63.07
2022-11-20T08:41:13.815Z,63.42
2022-11-20T08:43:46.569Z,63.14
2022-11-20T08:46:17.166Z,62.82
2022-11-20T08:48:47.945Z,62.81
2022-11-20T08:51:19.177Z,62.89
2022-11-20T08:53:49.759Z,62.44
2022-11-20T08:56:20.628Z,61.90
2022-11-20T09:01:44.686Z,61.96
2022-11-20T09:04:15.558Z,62.05
2022-11-20T09:06:45.911Z,62.29
2022-11-20T09:09:16.061Z,60.94
2022-11-20T09:11:46.224Z,61.44
2022-11-20T09:14:19.107Z,61.37
2022-11-20T09:16:51.812Z,61.23
2022-11-20T09:19:35.384Z,61.12
2022-11-20T09:22:06.520Z,60.50
2022-11-20T09:24:36.783Z,61.31
2022-11-20T09:27:08.286Z,60.62
2022-11-20T09:29:41.896Z,59.42
2022-11-20T09:32:12.068Z,58.99
2022-11-20T09:34:42.518Z,59.68
2022-11-20T09:37:12.660Z,59.57
2022-11-20T09:39:43.032Z,59.71
2022-11-20T09:42:39.799Z,59.75
2022-11-20T09:45:22.039Z,59.69
2022-11-20T09:48:07.321Z,58.75
2022-11-20T09:50:48.871Z,57.97
2022-11-20T09:53:29.046Z,58.55
2022-11-20T09:56:00.061Z,58.05
2022-11-20T09:58:36.176Z,58.15
2022-11-20T10:01:16.185Z,57.93
2022-11-20T10:03:57.473Z,58.79
2022-11-20T10:06:33.483Z,59.14
2022-11-20T10:09:16.112Z,59.13
2022-11-20T10:11:52.881Z,59.56
2022-11-20T10:14:34.803Z,59.32
2022-11-20T10:17:24.371Z,59.02
2022-11-20T10:20:12.819Z,59.25
2022-11-20T10:22:54.069Z,59.59
2022-11-20T10:25:28.456Z,59.78
2022-11-20T10:28:14.680Z,59.42
2022-11-20T10:30:48.081Z,59.49
2022-11-20T10:33:24.286Z,59.98
2022-11-20T10:35:58.363Z,59.53
2022-11-20T10:38:37.716Z,58.77
2022-11-20T10:41:23.344Z,57.51
2022-11-20T10:43:58.360Z,56.61
2022-11-20T10:46:32.498Z,56.20
2022-11-20T10:49:09.046Z,55.86
2022-11-20T10:51:43.948Z,55.85
2022-11-20T10:54:24.819Z,56.17
2022-11-20T10:56:56.311Z,55.10
2022-11-20T10:59:42.008Z,55.50
2022-11-20T11:02:24.271Z,55.55
2022-11-20T11:04:58.026Z,55.19
2022-11-20T11:07:33.560Z,55.89
2022-11-20T11:10:04.368Z,55.96
2022-11-20T11:12:35.109Z,57.83
2022-11-20T11:15:05.422Z,57.90
2022-11-20T11:17:37.724Z,58.18
2022-11-20T11:20:20.496Z,58.11
2022-11-20T11:22:53.859Z,58.24
2022-11-20T11:25:26.761Z,57.96
2022-11-20T11:27:59.250Z,58.14
2022-11-20T11:30:32.193Z,57.97
2022-11-20T11:33:10.535Z,57.65
2022-11-20T11:35:51.284Z,57.39
2022-11-20T11:38:27.333Z,57.13
2022-11-20T11:40:58.292Z,57.53
2022-11-20T11:43:42.932Z,57.85
2022-11-20T11:46:29.953Z,57.50
2022-11-20T11:49:02.514Z,58.08
2022-11-20T11:51:42.337Z,57.65
2022-11-20T11:54:21.660Z,58.33
2022-11-20T11:56:53.444Z,57.77
2022-11-20T11:59:31.182Z,57.72
2022-11-20T12:02:07.944Z,57.29
2022-11-20T12:04:48.589Z,56.98
2022-11-20T12:07:46.420Z,57.05
2022-11-20T12:10:24.004Z,56.97
2022-11-20T12:12:59.768Z,57.51
2022-11-20T12:15:34.139Z,57.36
2022-11-20T12:18:04.801Z,57.11
2022-11-20T12:20:45.927Z,57.30
2022-11-20T12:23:30.905Z,56.96
2022-11-20T12:26:05.142Z,55.70
2022-11-20T12:28:52.916Z,55.92
2022-11-20T12:31:41.659Z,54.88
2022-11-20T12:34:41.969Z,55.37
2022-11-20T12:37:24.183Z,55.58
2022-11-20T12:40:04.268Z,54.96
2022-11-20T12:43:12.159Z,55.30
2022-11-20T12:46:04.820Z,55.26
2022-11-20T12:48:59.761Z,55.30
2022-11-20T12:51:56.200Z,55.86
2022-11-20T12:54:50.090Z,56.19
2022-11-20T12:57:28.607Z,56.54
2022-11-20T13:00:15.738Z,56.39
2022-11-20T13:03:09.076Z,57.05
2022-11-20T13:05:51.036Z,57.00
2022-11-20T13:08:26.677Z,57.66
2022-11-20T13:11:08.132Z,57.74
2022-11-20T13:14:08.436Z,58.12
2022-11-20T13:16:45.484Z,58.63
2022-11-20T13:19:18.014Z,58.77
2022-11-20T13:21:50.580Z,59.28
2022-11-20T13:24:31.296Z,59.81
2022-11-20T13:27:09.788Z,59.98
2022-11-20T13:29:46.519Z,60.31
2022-11-20T13:32:20.832Z,60.01
2022-11-20T13:34:57.413Z,59.77
2022-11-20T13:37:31.675Z,60.71
2022-11-20T13:40:26.348Z,60.48
2022-11-20T13:43:05.058Z,60.22
2022-11-20T13:45:37.776Z,60.67
2022-11-20T13:48:23.030Z,61.01
2022-11-20T13:51:03.749Z,61.44
2022-11-20T13:53:52.286Z,61.63
2022-11-20T13:56:31.330Z,62.07
2022-11-20T13:59:15.591Z,62.30
2022-11-20T14:01:50.011Z,62.34
2022-11-20T14:04:29.530Z,62.81
2022-11-20T14:07:00.387Z,62.82
2022-11-20T14:09:32.995Z,62.75
2022-11-20T14:12:03.570Z,63.04
2022-11-20T14:14:37.598Z,62.89
2022-11-20T14:17:23.083Z,63.32
2022-11-20T14:19:55.404Z,62.92
2022-11-20T14:22:28.610Z,63.23
2022-11-20T14:25:08.413Z,63.48
2022-11-20T14:27:41.501Z,64.14
2022-11-20T14:30:18.257Z,64.18
2022-11-20T14:32:52.440Z,64.40
2022-11-20T14:35:25.860Z,64.20
2022-11-20T14:37:59.584Z,64.44
2022-11-20T14:40:33.238Z,65.30
2022-11-20T14:43:06.782Z,65.46
2022-11-20T14:45:37.932Z,65.30
2022-11-20T14:48:14.678Z,65.57
2022-11-20T14:50:45.016Z,66.49
2022-11-20T14:53:25.920Z,66.43
2022-11-20T14:56:01.439Z,66.62
2022-11-20T14:58:34.451Z,66.98
2022-11-20T15:01:07.330Z,66.70
2022-11-20T15:03:42.080Z,66.49
2022-11-20T15:06:16.202Z,66.30
2022-11-20T15:08:54.692Z,67.00
2022-11-20T15:11:32.031Z,67.20
2022-11-20T15:14:06.737Z,67.53
2022-11-20T15:16:37.300Z,67.52
2022-11-20T15:19:20.868Z,67.79
2022-11-20T15:21:51.225Z,67.77
2022-11-20T15:24:22.363Z,67.93
2022-11-20T15:26:52.964Z,68.47
2022-11-20T15:29:25.092Z,68.41
2022-11-20T15:31:56.014Z,68.98
2022-11-20T15:34:31.234Z,69.01
2022-11-20T15:37:01.872Z,69.40
2022-11-20T15:39:32.074Z,69.42
2022-11-20T15:42:02.260Z,69.33
2022-11-20T15:44:32.443Z,69.52
2022-11-20T15:47:02.830Z,69.64
2022-11-20T15:49:35.881Z,69.94
2022-11-20T15:52:05.981Z,69.59
2022-11-20T15:54:36.192Z,69.98
2022-11-20T15:57:07.003Z,72.37
2022-11-20T15:59:40.839Z,71.29
2022-11-20T16:02:18.674Z,70.76
2022-11-20T16:04:51.904Z,70.83
2022-11-20T16:07:22.048Z,70.71
2022-11-20T16:09:52.112Z,70.85
2022-11-20T16:12:34.437Z,71.47
2022-11-20T16:15:16.861Z,71.53
2022-11-20T16:17:47.165Z,71.51
2022-11-20T16:20:19.791Z,71.84
2022-11-20T16:22:49.914Z,71.66
2022-11-20T16:25:22.993Z,72.09
2022-11-20T16:27:53.092Z,72.42
2022-11-20T16:30:23.492Z,72.57
2022-11-20T16:32:53.618Z,72.73
2022-11-20T16:35:26.448Z,72.74
2022-11-20T16:37:56.504Z,73.05
2022-11-20T16:40:27.125Z,72.72
2022-11-20T16:43:00.269Z,72.92
2022-11-20T16:45:33.869Z,73.29
2022-11-20T16:48:04.157Z,73.44
2022-11-20T16:50:36.873Z,73.57
2022-11-20T16:53:06.891Z,73.62
2022-11-20T16:55:36.949Z,73.55
2022-11-20T16:58:07.071Z,73.73
2022-11-20T17:00:39.581Z,74.34
2022-11-20T17:03:10.222Z,74.02
2022-11-20T17:05:42.987Z,74.28
2022-11-20T17:08:13.052Z,74.14
2022-11-20T17:10:43.215Z,74.13
2022-11-20T17:13:13.310Z,74.55
2022-11-20T17:15:43.376Z,74.47
2022-11-20T17:18:13.979Z,74.39
2022-11-20T17:20:54.870Z,74.43
2022-11-20T17:23:24.925Z,74.81
2022-11-20T17:25:55.011Z,74.91
2022-11-20T17:28:25.187Z,74.48
2022-11-20T17:30:55.268Z,74.92
2022-11-20T17:33:25.415Z,74.66
2022-11-20T17:35:58.155Z,75.11
2022-11-20T17:38:28.452Z,75.48
2022-11-20T17:41:05.475Z,75.57
2022-11-20T17:43:37.220Z,75.75
2022-11-20T17:46:08.709Z,75.40
2022-11-20T17:48:42.497Z,75.86
2022-11-20T17:51:17.388Z,75.67
2022-11-20T17:53:49.481Z,75.89
2022-11-20T17:56:32.186Z,76.20
2022-11-20T17:59:03.119Z,76.34
2022-11-20T18:01:33.262Z,76.52
2022-11-20T18:04:03.379Z,76.66
2022-11-20T18:06:36.264Z,76.63
2022-11-20T18:09:12.348Z,76.78
2022-11-20T18:11:45.575Z,76.97
2022-11-20T18:14:32.918Z,76.83
2022-11-20T18:17:05.223Z,76.88
2022-11-20T18:19:41.232Z,77.16
2022-11-20T18:22:23.024Z,77.26
2022-11-20T18:24:53.163Z,77.22
2022-11-20T18:27:24.505Z,77.16
2022-11-20T18:29:54.584Z,77.49
2022-11-20T18:32:25.530Z,77.03
2022-11-20T18:34:55.856Z,77.19
2022-11-20T18:37:28.637Z,77.22
2022-11-20T18:39:58.740Z,77.13
2022-11-20T18:42:41.363Z,77.41
2022-11-20T18:45:12.299Z,77.65
2022-11-20T18:47:42.498Z,77.61
2022-11-20T18:50:12.973Z,78.06
2022-11-20T18:52:48.176Z,78.29
2022-11-20T18:55:18.190Z,77.74
2022-11-20T18:57:48.645Z,78.01
2022-11-20T19:00:19.367Z,77.78
2022-11-20T19:02:49.742Z,78.20
2022-11-20T19:05:20.259Z,78.42
2022-11-20T19:07:53.178Z,78.00
2022-11-20T19:10:24.499Z,78.27
2022-11-20T19:12:54.543Z,78.47
2022-11-20T19:15:24.555Z,78.45
2022-11-20T19:17:57.040Z,78.95
2022-11-20T19:20:27.586Z,78.65
2022-11-20T19:23:00.360Z,78.69
2022-11-20T19:25:35.160Z,78.80
2022-11-20T19:28:08.172Z,78.75
2022-11-20T19:30:38.771Z,78.45
2022-11-20T19:33:08.918Z,78.56
2022-11-20T19:35:39.423Z,78.75
2022-11-20T19:38:12.269Z,79.02
2022-11-20T19:40:42.412Z,78.92
2022-11-20T19:43:12.535Z,78.55
2022-11-20T19:45:42.890Z,78.51
2022-11-20T19:48:13.327Z,78.55
2022-11-20T19:50:43.363Z,78.72
2022-11-20T19:53:16.248Z,78.63
2022-11-20T19:55:46.320Z,78.65
2022-11-20T19:58:16.489Z,78.33
2022-11-20T20:00:46.717Z,78.14
2022-11-20T20:03:16.949Z,78.34
2022-11-20T20:05:47.460Z,78.29
2022-11-20T20:08:23.241Z,78.66
2022-11-20T20:10:59.881Z,78.51
2022-11-20T20:13:30.151Z,78.39
2022-11-20T20:16:00.329Z,78.51
2022-11-20T20:18:30.471Z,78.22
2022-11-20T20:21:06.189Z,78.38
2022-11-20T20:23:38.965Z,78.58
2022-11-20T20:26:11.502Z,78.26
2022-11-20T20:28:42.853Z,78.76
2022-11-20T20:31:15.000Z,78.63
2022-11-20T20:33:45.939Z,78.72
2022-11-20T20:36:17.543Z,78.57
2022-11-20T20:38:50.940Z,78.92
2022-11-20T20:41:22.448Z,78.56
2022-11-20T20:44:05.044Z,78.92
2022-11-20T20:46:35.396Z,79.04
2022-11-20T20:49:07.981Z,78.70
2022-11-20T20:51:38.544Z,78.75
2022-11-20T20:54:11.202Z,78.79
2022-11-20T20:56:41.251Z,78.94
2022-11-20T20:59:12.084Z,79.18
2022-11-20T21:01:42.329Z,78.96
2022-11-20T21:04:12.486Z,78.56
2022-11-20T21:06:42.567Z,78.65
2022-11-20T21:09:15.298Z,78.72
2022-11-20T21:11:47.457Z,78.51
2022-11-20T21:14:17.570Z,78.68
2022-11-20T21:16:47.617Z,78.92
2022-11-20T21:19:19.135Z,78.46
2022-11-20T21:22:03.304Z,77.74
2022-11-20T21:24:37.778Z,77.53
2022-11-20T21:27:09.000Z,77.92
2022-11-20T21:29:39.175Z,77.83
2022-11-20T21:32:09.233Z,77.92
2022-11-20T21:34:39.324Z,78.03
2022-11-20T21:37:09.467Z,78.42
2022-11-20T21:39:50.896Z,78.71
2022-11-20T21:42:21.015Z,78.80
2022-11-20T21:44:51.071Z,78.89
2022-11-20T21:47:21.290Z,79.71
2022-11-20T21:49:51.356Z,79.87
2022-11-20T21:52:21.447Z,79.48
2022-11-20T21:54:54.099Z,78.90
2022-11-20T21:57:24.140Z,78.64
2022-11-20T21:59:54.211Z,79.01
2022-11-20T22:02:24.455Z,79.07
2022-11-20T22:05:04.469Z,79.19
2022-11-20T22:07:34.627Z,78.90
2022-11-20T22:10:08.028Z,79.18
2022-11-20T22:12:38.189Z,79.11
2022-11-20T22:15:07.028Z,78.78
2022-11-20T22:17:49.445Z,79.03
2022-11-20T22:20:19.628Z,79.50
2022-11-20T22:22:49.650Z,79.15
2022-11-20T22:25:22.394Z,79.38
2022-11-20T22:27:52.988Z,79.20
2022-11-20T22:30:23.312Z,79.24
2022-11-20T22:32:56.555Z,78.98
2022-11-20T22:35:26.492Z,78.92
2022-11-20T22:37:56.581Z,79.46
2022-11-20T22:40:29.252Z,78.94
2022-11-20T22:42:59.378Z,79.36
2022-11-20T22:45:29.466Z,79.21
2022-11-20T22:48:02.422Z,78.90
2022-11-20T22:50:32.509Z,78.96
2022-11-20T22:53:02.687Z,79.04
2022-11-20T22:55:36.009Z,79.05
2022-11-20T22:58:06.072Z,79.35
2022-11-20T23:00:36.326Z,78.92
2022-11-20T23:03:06.373Z,78.94
2022-11-20T23:05:36.568Z,78.89
2022-11-20T23:08:06.963Z,79.03
2022-11-20T23:10:39.653Z,79.48
2022-11-20T23:13:09.911Z,79.63
2022-11-20T23:15:39.998Z,79.39
2022-11-20T23:18:10.293Z,79.21
2022-11-20T23:20:40.348Z,79.60
2022-11-20T23:23:10.538Z,79.30
2022-11-20T23:25:43.493Z,79.38
2022-11-20T23:28:13.811Z,79.32
2022-11-20T23:30:43.822Z,79.26
2022-11-20T23:33:13.932Z,79.55
2022-11-20T23:35:44.025Z,79.16
2022-11-20T23:38:14.113Z,79.03
2022-11-20T23:40:52.103Z,79.32
2022-11-20T23:43:24.319Z,79.15
2022-11-20T23:45:56.077Z,79.47
2022-11-20T23:48:28.867Z,78.95
2022-11-20T23:50:59.274Z,79.58
2022-11-20T23:53:30.592Z,79.60
2022-11-20T23:56:05.262Z,79.59
2022-11-20T23:58:38.556Z,79.87
